sensor_id;sensor_type;location;lat;lon;timestamp;temperature;humidity
47857;DHT22;33618;49.972;8.242;2023-02-28T00:01:17;0.50;91.40
47857;DHT22;33618;49.972;8.242;2023-02-28T00:03:44;0.50;91.70
47857;DHT22;33618;49.972;8.242;2023-02-28T00:06:11;0.50;91.60
47857;DHT22;33618;49.972;8.242;2023-02-28T00:08:39;0.50;91.90
47857;DHT22;33618;49.972;8.242;2023-02-28T00:11:09;0.50;92.20
47857;DHT22;33618;49.972;8.242;2023-02-28T00:13:42;0.50;92.00
47857;DHT22;33618;49.972;8.242;2023-02-28T00:16:11;0.60;92.20
47857;DHT22;33618;49.972;8.242;2023-02-28T00:18:40;0.60;92.30
47857;DHT22;33618;49.972;8.242;2023-02-28T00:21:08;0.70;92.40
47857;DHT22;33618;49.972;8.242;2023-02-28T00:23:35;0.70;92.30
47857;DHT22;33618;49.972;8.242;2023-02-28T00:26:02;0.70;92.60
47857;DHT22;33618;49.972;8.242;2023-02-28T00:28:34;0.70;92.70
47857;DHT22;33618;49.972;8.242;2023-02-28T00:31:03;0.80;92.60
47857;DHT22;33618;49.972;8.242;2023-02-28T00:33:56;0.80;92.70
47857;DHT22;33618;49.972;8.242;2023-02-28T00:36:24;0.90;92.90
47857;DHT22;33618;49.972;8.242;2023-02-28T00:38:52;0.90;92.80
47857;DHT22;33618;49.972;8.242;2023-02-28T00:41:20;1.00;92.80
47857;DHT22;33618;49.972;8.242;2023-02-28T00:43:48;0.90;92.80
47857;DHT22;33618;49.972;8.242;2023-02-28T00:46:16;1.00;92.90
47857;DHT22;33618;49.972;8.242;2023-02-28T00:48:44;0.90;93.10
47857;DHT22;33618;49.972;8.242;2023-02-28T00:51:11;1.00;93.20
47857;DHT22;33618;49.972;8.242;2023-02-28T00:53:38;1.00;93.50
47857;DHT22;33618;49.972;8.242;2023-02-28T00:56:06;1.00;93.70
47857;DHT22;33618;49.972;8.242;2023-02-28T00:58:33;1.00;93.90
47857;DHT22;33618;49.972;8.242;2023-02-28T01:01:00;1.10;93.80
47857;DHT22;33618;49.972;8.242;2023-02-28T01:03:37;1.10;94.20
47857;DHT22;33618;49.972;8.242;2023-02-28T01:06:06;1.10;94.30
47857;DHT22;33618;49.972;8.242;2023-02-28T01:08:34;1.10;94.20
47857;DHT22;33618;49.972;8.242;2023-02-28T01:11:09;1.00;94.30
47857;DHT22;33618;49.972;8.242;2023-02-28T01:13:36;1.10;94.30
47857;DHT22;33618;49.972;8.242;2023-02-28T01:16:04;1.10;94.10
47857;DHT22;33618;49.972;8.242;2023-02-28T01:18:31;1.00;94.40
47857;DHT22;33618;49.972;8.242;2023-02-28T01:20:58;1.00;94.80
47857;DHT22;33618;49.972;8.242;2023-02-28T01:23:25;0.90;95.10
47857;DHT22;33618;49.972;8.242;2023-02-28T01:25:52;0.90;95.20
47857;DHT22;33618;49.972;8.242;2023-02-28T01:28:19;0.80;95.60
47857;DHT22;33618;49.972;8.242;2023-02-28T01:30:50;0.80;96.10
47857;DHT22;33618;49.972;8.242;2023-02-28T01:33:17;0.70;96.60
47857;DHT22;33618;49.972;8.242;2023-02-28T01:35:44;0.60;97.00
47857;DHT22;33618;49.972;8.242;2023-02-28T01:38:12;0.60;97.40
47857;DHT22;33618;49.972;8.242;2023-02-28T01:40:48;0.50;97.90
47857;DHT22;33618;49.972;8.242;2023-02-28T01:45:47;0.50;98.50
47857;DHT22;33618;49.972;8.242;2023-02-28T01:48:14;0.40;98.80
47857;DHT22;33618;49.972;8.242;2023-02-28T01:50:45;0.40;99.20
47857;DHT22;33618;49.972;8.242;2023-02-28T01:53:18;0.40;99.30
47857;DHT22;33618;49.972;8.242;2023-02-28T01:55:49;0.40;99.60
47857;DHT22;33618;49.972;8.242;2023-02-28T01:58:18;0.40;99.80
47857;DHT22;33618;49.972;8.242;2023-02-28T02:00:45;0.30;99.90
47857;DHT22;33618;49.972;8.242;2023-02-28T02:03:15;0.20;99.90
47857;DHT22;33618;49.972;8.242;2023-02-28T02:05:45;0.10;99.90
47857;DHT22;33618;49.972;8.242;2023-02-28T02:08:23;0.10;99.90
47857;DHT22;33618;49.972;8.242;2023-02-28T02:10:52;0.10;99.90
47857;DHT22;33618;49.972;8.242;2023-02-28T02:41:44;-0.30;99.90
47857;DHT22;33618;49.972;8.242;2023-02-28T02:46:51;-0.40;99.90
47857;DHT22;33618;49.972;8.242;2023-02-28T02:49:28;-0.30;99.90
47857;DHT22;33618;49.972;8.242;2023-02-28T02:52:01;-0.40;99.90
47857;DHT22;33618;49.972;8.242;2023-02-28T02:54:36;-0.40;99.90
47857;DHT22;33618;49.972;8.242;2023-02-28T02:57:07;-0.30;99.90
47857;DHT22;33618;49.972;8.242;2023-02-28T02:59:37;-0.30;99.90
47857;DHT22;33618;49.972;8.242;2023-02-28T03:02:08;-0.40;99.90
47857;DHT22;33618;49.972;8.242;2023-02-28T03:04:42;-0.40;99.90
47857;DHT22;33618;49.972;8.242;2023-02-28T03:07:09;-0.40;99.90
47857;DHT22;33618;49.972;8.242;2023-02-28T03:09:36;-0.40;99.90
47857;DHT22;33618;49.972;8.242;2023-02-28T03:12:08;-0.40;99.90
47857;DHT22;33618;49.972;8.242;2023-02-28T03:28:15;-0.50;99.90
47857;DHT22;33618;49.972;8.242;2023-02-28T03:30:52;-0.50;99.90
47857;DHT22;33618;49.972;8.242;2023-02-28T03:33:25;-0.50;99.90
47857;DHT22;33618;49.972;8.242;2023-02-28T03:35:59;-0.60;99.90
47857;DHT22;33618;49.972;8.242;2023-02-28T03:38:35;-0.60;99.90
47857;DHT22;33618;49.972;8.242;2023-02-28T03:41:06;-0.60;99.90
47857;DHT22;33618;49.972;8.242;2023-02-28T03:43:39;-0.60;99.90
47857;DHT22;33618;49.972;8.242;2023-02-28T03:46:11;-0.60;99.90
47857;DHT22;33618;49.972;8.242;2023-02-28T03:48:44;-0.60;99.90
47857;DHT22;33618;49.972;8.242;2023-02-28T03:51:16;-0.60;99.90
47857;DHT22;33618;49.972;8.242;2023-02-28T03:53:49;-0.60;99.90
47857;DHT22;33618;49.972;8.242;2023-02-28T03:56:31;-0.60;99.90
47857;DHT22;33618;49.972;8.242;2023-02-28T04:01:51;-0.60;99.90
47857;DHT22;33618;49.972;8.242;2023-02-28T04:04:18;-0.60;99.90
47857;DHT22;33618;49.972;8.242;2023-02-28T04:06:45;-0.60;99.90
47857;DHT22;33618;49.972;8.242;2023-02-28T04:09:17;-0.70;99.90
47857;DHT22;33618;49.972;8.242;2023-02-28T04:11:51;-0.70;99.90
47857;DHT22;33618;49.972;8.242;2023-02-28T04:14:18;-0.70;99.90
47857;DHT22;33618;49.972;8.242;2023-02-28T04:16:45;-0.60;99.90
47857;DHT22;33618;49.972;8.242;2023-02-28T04:19:13;-0.60;99.90
47857;DHT22;33618;49.972;8.242;2023-02-28T04:21:43;-0.60;99.90
47857;DHT22;33618;49.972;8.242;2023-02-28T04:24:13;-0.60;99.90
47857;DHT22;33618;49.972;8.242;2023-02-28T04:26:43;-0.60;99.90
47857;DHT22;33618;49.972;8.242;2023-02-28T04:29:12;-0.60;99.90
47857;DHT22;33618;49.972;8.242;2023-02-28T04:31:40;-0.50;99.90
47857;DHT22;33618;49.972;8.242;2023-02-28T04:34:07;-0.50;99.90
47857;DHT22;33618;49.972;8.242;2023-02-28T04:36:34;-0.50;99.90
47857;DHT22;33618;49.972;8.242;2023-02-28T04:39:01;-0.60;99.90
47857;DHT22;33618;49.972;8.242;2023-02-28T04:41:29;-0.60;99.90
47857;DHT22;33618;49.972;8.242;2023-02-28T04:43:58;-0.60;99.90
47857;DHT22;33618;49.972;8.242;2023-02-28T04:46:26;-0.60;99.90
47857;DHT22;33618;49.972;8.242;2023-02-28T04:48:53;-0.70;99.90
47857;DHT22;33618;49.972;8.242;2023-02-28T04:51:21;-0.70;99.90
47857;DHT22;33618;49.972;8.242;2023-02-28T04:53:48;-0.70;99.90
47857;DHT22;33618;49.972;8.242;2023-02-28T04:56:17;-0.70;99.90
47857;DHT22;33618;49.972;8.242;2023-02-28T04:58:44;-0.70;99.90
47857;DHT22;33618;49.972;8.242;2023-02-28T05:01:27;-0.70;99.90
47857;DHT22;33618;49.972;8.242;2023-02-28T05:03:57;-0.70;99.90
47857;DHT22;33618;49.972;8.242;2023-02-28T05:06:26;-0.70;99.90
47857;DHT22;33618;49.972;8.242;2023-02-28T05:08:53;-0.70;99.90
47857;DHT22;33618;49.972;8.242;2023-02-28T05:11:25;-0.70;99.90
47857;DHT22;33618;49.972;8.242;2023-02-28T05:13:53;-0.70;99.90
47857;DHT22;33618;49.972;8.242;2023-02-28T05:16:20;-0.70;99.90
47857;DHT22;33618;49.972;8.242;2023-02-28T05:18:48;-0.70;99.90
47857;DHT22;33618;49.972;8.242;2023-02-28T05:21:29;-0.70;99.90
47857;DHT22;33618;49.972;8.242;2023-02-28T05:23:59;-0.70;99.90
47857;DHT22;33618;49.972;8.242;2023-02-28T05:26:27;-0.70;99.90
47857;DHT22;33618;49.972;8.242;2023-02-28T05:28:54;-0.70;99.90
47857;DHT22;33618;49.972;8.242;2023-02-28T05:31:22;-0.80;99.90
47857;DHT22;33618;49.972;8.242;2023-02-28T05:33:49;-0.80;99.90
47857;DHT22;33618;49.972;8.242;2023-02-28T05:36:16;-0.70;99.90
47857;DHT22;33618;49.972;8.242;2023-02-28T05:38:43;-0.70;99.90
47857;DHT22;33618;49.972;8.242;2023-02-28T05:41:12;-0.60;99.90
47857;DHT22;33618;49.972;8.242;2023-02-28T05:43:38;-0.60;99.90
47857;DHT22;33618;49.972;8.242;2023-02-28T05:46:07;-0.60;99.90
47857;DHT22;33618;49.972;8.242;2023-02-28T05:48:36;-0.60;99.90
47857;DHT22;33618;49.972;8.242;2023-02-28T05:51:04;-0.50;99.90
47857;DHT22;33618;49.972;8.242;2023-02-28T05:53:32;-0.60;99.90
47857;DHT22;33618;49.972;8.242;2023-02-28T05:55:59;-0.60;99.90
47857;DHT22;33618;49.972;8.242;2023-02-28T05:58:27;-0.60;99.90
47857;DHT22;33618;49.972;8.242;2023-02-28T06:01:18;-0.70;99.90
47857;DHT22;33618;49.972;8.242;2023-02-28T06:03:46;-0.70;99.90
47857;DHT22;33618;49.972;8.242;2023-02-28T06:06:13;-0.70;99.90
47857;DHT22;33618;49.972;8.242;2023-02-28T06:08:40;-0.60;99.90
47857;DHT22;33618;49.972;8.242;2023-02-28T06:11:07;-0.60;99.90
47857;DHT22;33618;49.972;8.242;2023-02-28T06:13:34;-0.60;99.90
47857;DHT22;33618;49.972;8.242;2023-02-28T06:16:01;-0.60;99.90
47857;DHT22;33618;49.972;8.242;2023-02-28T06:18:28;-0.60;99.90
47857;DHT22;33618;49.972;8.242;2023-02-28T06:20:55;-0.50;99.90
47857;DHT22;33618;49.972;8.242;2023-02-28T06:23:22;-0.50;99.90
47857;DHT22;33618;49.972;8.242;2023-02-28T06:25:49;-0.50;99.90
47857;DHT22;33618;49.972;8.242;2023-02-28T06:28:17;-0.60;99.90
47857;DHT22;33618;49.972;8.242;2023-02-28T06:30:44;-0.60;99.90
47857;DHT22;33618;49.972;8.242;2023-02-28T06:33:12;-0.60;99.90
47857;DHT22;33618;49.972;8.242;2023-02-28T06:35:39;-0.60;99.90
47857;DHT22;33618;49.972;8.242;2023-02-28T06:38:06;-0.50;99.90
47857;DHT22;33618;49.972;8.242;2023-02-28T06:40:33;-0.50;99.90
47857;DHT22;33618;49.972;8.242;2023-02-28T06:43:02;-0.50;99.90
47857;DHT22;33618;49.972;8.242;2023-02-28T06:45:30;-0.40;99.90
47857;DHT22;33618;49.972;8.242;2023-02-28T06:47:57;-0.40;99.90
47857;DHT22;33618;49.972;8.242;2023-02-28T06:50:24;-0.40;99.80
47857;DHT22;33618;49.972;8.242;2023-02-28T06:52:51;-0.40;99.90
47857;DHT22;33618;49.972;8.242;2023-02-28T06:55:20;-0.30;99.60
47857;DHT22;33618;49.972;8.242;2023-02-28T06:57:47;-0.40;99.40
47857;DHT22;33618;49.972;8.242;2023-02-28T07:00:17;-0.30;99.30
47857;DHT22;33618;49.972;8.242;2023-02-28T07:02:44;-0.30;99.20
47857;DHT22;33618;49.972;8.242;2023-02-28T07:05:11;-0.30;99.10
47857;DHT22;33618;49.972;8.242;2023-02-28T07:07:38;-0.20;99.00
47857;DHT22;33618;49.972;8.242;2023-02-28T07:10:11;-0.20;99.00
47857;DHT22;33618;49.972;8.242;2023-02-28T07:12:38;-0.20;98.60
47857;DHT22;33618;49.972;8.242;2023-02-28T07:15:05;-0.10;98.50
47857;DHT22;33618;49.972;8.242;2023-02-28T07:17:32;-0.10;98.40
47857;DHT22;33618;49.972;8.242;2023-02-28T07:19:59;-0.10;98.00
47857;DHT22;33618;49.972;8.242;2023-02-28T07:22:26;0.00;97.90
47857;DHT22;33618;49.972;8.242;2023-02-28T07:24:55;0.00;97.40
47857;DHT22;33618;49.972;8.242;2023-02-28T07:27:22;0.00;97.10
47857;DHT22;33618;49.972;8.242;2023-02-28T07:29:52;0.10;97.10
47857;DHT22;33618;49.972;8.242;2023-02-28T07:32:19;0.20;96.70
47857;DHT22;33618;49.972;8.242;2023-02-28T07:34:47;0.20;96.60
47857;DHT22;33618;49.972;8.242;2023-02-28T07:37:15;0.20;96.40
47857;DHT22;33618;49.972;8.242;2023-02-28T07:39:42;0.30;96.00
47857;DHT22;33618;49.972;8.242;2023-02-28T07:42:09;0.40;95.80
47857;DHT22;33618;49.972;8.242;2023-02-28T07:44:40;0.40;95.40
47857;DHT22;33618;49.972;8.242;2023-02-28T07:47:10;0.50;95.20
47857;DHT22;33618;49.972;8.242;2023-02-28T07:49:37;0.50;95.00
47857;DHT22;33618;49.972;8.242;2023-02-28T07:52:05;0.60;94.80
47857;DHT22;33618;49.972;8.242;2023-02-28T07:54:33;0.60;94.90
47857;DHT22;33618;49.972;8.242;2023-02-28T07:57:00;0.70;94.30
47857;DHT22;33618;49.972;8.242;2023-02-28T07:59:27;0.80;94.20
47857;DHT22;33618;49.972;8.242;2023-02-28T08:01:58;0.80;93.90
47857;DHT22;33618;49.972;8.242;2023-02-28T08:04:26;0.80;93.60
47857;DHT22;33618;49.972;8.242;2023-02-28T08:06:53;0.90;93.40
47857;DHT22;33618;49.972;8.242;2023-02-28T08:09:20;0.90;93.10
47857;DHT22;33618;49.972;8.242;2023-02-28T08:11:47;1.00;93.00
47857;DHT22;33618;49.972;8.242;2023-02-28T08:14:14;1.10;93.30
47857;DHT22;33618;49.972;8.242;2023-02-28T08:16:41;1.10;93.20
47857;DHT22;33618;49.972;8.242;2023-02-28T08:19:09;1.20;93.40
47857;DHT22;33618;49.972;8.242;2023-02-28T08:21:36;1.30;92.80
47857;DHT22;33618;49.972;8.242;2023-02-28T08:24:03;1.40;92.50
47857;DHT22;33618;49.972;8.242;2023-02-28T08:26:31;1.50;92.40
47857;DHT22;33618;49.972;8.242;2023-02-28T08:28:58;1.60;92.10
47857;DHT22;33618;49.972;8.242;2023-02-28T08:31:27;1.70;91.90
47857;DHT22;33618;49.972;8.242;2023-02-28T08:33:54;1.70;91.40
47857;DHT22;33618;49.972;8.242;2023-02-28T08:36:26;1.90;91.40
47857;DHT22;33618;49.972;8.242;2023-02-28T08:38:56;2.10;91.30
47857;DHT22;33618;49.972;8.242;2023-02-28T08:41:23;2.10;90.90
47857;DHT22;33618;49.972;8.242;2023-02-28T08:43:50;2.30;90.60
47857;DHT22;33618;49.972;8.242;2023-02-28T08:46:17;2.50;90.20
47857;DHT22;33618;49.972;8.242;2023-02-28T08:48:44;2.90;89.80
47857;DHT22;33618;49.972;8.242;2023-02-28T08:51:16;3.40;87.20
47857;DHT22;33618;49.972;8.242;2023-02-28T08:53:45;4.00;85.40
47857;DHT22;33618;49.972;8.242;2023-02-28T08:56:15;4.30;83.50
47857;DHT22;33618;49.972;8.242;2023-02-28T08:58:44;4.70;82.20
47857;DHT22;33618;49.972;8.242;2023-02-28T09:01:13;5.00;81.00
47857;DHT22;33618;49.972;8.242;2023-02-28T09:03:41;5.40;78.80
47857;DHT22;33618;49.972;8.242;2023-02-28T09:06:10;5.70;78.00
47857;DHT22;33618;49.972;8.242;2023-02-28T09:08:37;6.10;76.90
47857;DHT22;33618;49.972;8.242;2023-02-28T09:32:23;7.90;70.70
47857;DHT22;33618;49.972;8.242;2023-02-28T09:34:50;7.60;69.70
47857;DHT22;33618;49.972;8.242;2023-02-28T09:37:17;7.80;69.70
47857;DHT22;33618;49.972;8.242;2023-02-28T09:39:44;7.60;69.30
47857;DHT22;33618;49.972;8.242;2023-02-28T09:42:21;7.60;68.60
47857;DHT22;33618;49.972;8.242;2023-02-28T09:44:50;7.70;68.60
47857;DHT22;33618;49.972;8.242;2023-02-28T09:47:31;7.50;69.10
47857;DHT22;33618;49.972;8.242;2023-02-28T09:50:14;7.80;68.60
47857;DHT22;33618;49.972;8.242;2023-02-28T09:52:45;7.80;68.20
47857;DHT22;33618;49.972;8.242;2023-02-28T09:55:33;7.60;67.60
47857;DHT22;33618;49.972;8.242;2023-02-28T09:58:22;7.40;67.20
47857;DHT22;33618;49.972;8.242;2023-02-28T10:01:05;7.10;67.70
47857;DHT22;33618;49.972;8.242;2023-02-28T10:08:37;7.10;67.60
47857;DHT22;33618;49.972;8.242;2023-02-28T10:11:15;6.90;67.80
47857;DHT22;33618;49.972;8.242;2023-02-28T10:16:34;6.40;67.60
47857;DHT22;33618;49.972;8.242;2023-02-28T10:21:40;6.60;68.30
47857;DHT22;33618;49.972;8.242;2023-02-28T10:24:28;6.50;68.00
47857;DHT22;33618;49.972;8.242;2023-02-28T10:27:01;5.70;67.50
47857;DHT22;33618;49.972;8.242;2023-02-28T10:29:31;5.50;68.00
47857;DHT22;33618;49.972;8.242;2023-02-28T10:32:01;5.30;68.60
47857;DHT22;33618;49.972;8.242;2023-02-28T10:34:29;5.20;68.90
47857;DHT22;33618;49.972;8.242;2023-02-28T10:36:58;5.20;69.30
47857;DHT22;33618;49.972;8.242;2023-02-28T10:39:37;5.50;69.10
47857;DHT22;33618;49.972;8.242;2023-02-28T10:42:05;5.70;69.00
47857;DHT22;33618;49.972;8.242;2023-02-28T10:44:32;5.70;68.80
47857;DHT22;33618;49.972;8.242;2023-02-28T10:46:59;5.60;68.70
47857;DHT22;33618;49.972;8.242;2023-02-28T10:49:27;5.50;68.90
47857;DHT22;33618;49.972;8.242;2023-02-28T10:51:58;5.40;68.90
47857;DHT22;33618;49.972;8.242;2023-02-28T10:54:36;6.00;69.20
47857;DHT22;33618;49.972;8.242;2023-02-28T10:57:23;6.40;68.00
47857;DHT22;33618;49.972;8.242;2023-02-28T11:00:20;6.70;67.50
47857;DHT22;33618;49.972;8.242;2023-02-28T11:02:48;7.10;67.20
47857;DHT22;33618;49.972;8.242;2023-02-28T11:05:30;7.50;66.50
47857;DHT22;33618;49.972;8.242;2023-02-28T11:08:13;7.60;66.70
47857;DHT22;33618;49.972;8.242;2023-02-28T11:10:46;7.30;66.60
47857;DHT22;33618;49.972;8.242;2023-02-28T11:13:21;7.30;66.90
47857;DHT22;33618;49.972;8.242;2023-02-28T11:15:59;7.20;66.40
47857;DHT22;33618;49.972;8.242;2023-02-28T11:18:52;7.70;66.40
47857;DHT22;33618;49.972;8.242;2023-02-28T11:21:32;8.20;64.90
47857;DHT22;33618;49.972;8.242;2023-02-28T11:24:02;8.50;64.20
47857;DHT22;33618;49.972;8.242;2023-02-28T11:26:47;8.90;64.20
47857;DHT22;33618;49.972;8.242;2023-02-28T11:29:27;9.00;64.10
47857;DHT22;33618;49.972;8.242;2023-02-28T11:34:37;9.70;63.50
47857;DHT22;33618;49.972;8.242;2023-02-28T11:37:08;9.80;63.10
47857;DHT22;33618;49.972;8.242;2023-02-28T11:39:36;9.90;62.60
47857;DHT22;33618;49.972;8.242;2023-02-28T11:50:00;10.50;62.00
47857;DHT22;33618;49.972;8.242;2023-02-28T12:06:33;11.50;59.90
47857;DHT22;33618;49.972;8.242;2023-02-28T12:09:27;11.60;58.80
47857;DHT22;33618;49.972;8.242;2023-02-28T12:20:14;10.30;58.60
47857;DHT22;33618;49.972;8.242;2023-02-28T12:22:57;10.60;59.60
47857;DHT22;33618;49.972;8.242;2023-02-28T12:26:00;10.90;58.40
47857;DHT22;33618;49.972;8.242;2023-02-28T12:28:42;11.20;58.80
47857;DHT22;33618;49.972;8.242;2023-02-28T12:31:24;11.60;57.90
47857;DHT22;33618;49.972;8.242;2023-02-28T12:33:55;11.80;58.10
47857;DHT22;33618;49.972;8.242;2023-02-28T12:36:23;12.10;57.40
47857;DHT22;33618;49.972;8.242;2023-02-28T12:39:00;11.60;56.90
47857;DHT22;33618;49.972;8.242;2023-02-28T12:41:40;11.20;57.30
47857;DHT22;33618;49.972;8.242;2023-02-28T12:44:17;11.50;57.90
47857;DHT22;33618;49.972;8.242;2023-02-28T12:46:48;11.70;57.20
47857;DHT22;33618;49.972;8.242;2023-02-28T12:49:19;12.00;56.60
47857;DHT22;33618;49.972;8.242;2023-02-28T12:51:49;12.10;55.80
47857;DHT22;33618;49.972;8.242;2023-02-28T12:54:40;12.00;56.40
47857;DHT22;33618;49.972;8.242;2023-02-28T12:57:36;12.10;55.70
47857;DHT22;33618;49.972;8.242;2023-02-28T13:00:13;12.80;55.90
47857;DHT22;33618;49.972;8.242;2023-02-28T13:05:26;13.00;54.80
47857;DHT22;33618;49.972;8.242;2023-02-28T13:10:49;13.30;54.00
47857;DHT22;33618;49.972;8.242;2023-02-28T13:13:25;13.20;53.80
47857;DHT22;33618;49.972;8.242;2023-02-28T13:16:04;12.90;53.80
47857;DHT22;33618;49.972;8.242;2023-02-28T13:18:45;13.20;54.40
47857;DHT22;33618;49.972;8.242;2023-02-28T13:21:27;13.60;55.20
47857;DHT22;33618;49.972;8.242;2023-02-28T13:24:03;13.70;55.30
47857;DHT22;33618;49.972;8.242;2023-02-28T13:43:08;14.30;52.10
47857;DHT22;33618;49.972;8.242;2023-02-28T13:45:35;14.60;51.70
47857;DHT22;33618;49.972;8.242;2023-02-28T13:50:44;14.50;51.10
47857;DHT22;33618;49.972;8.242;2023-02-28T13:58:43;15.60;50.70
47857;DHT22;33618;49.972;8.242;2023-02-28T14:01:37;15.50;50.50
47857;DHT22;33618;49.972;8.242;2023-02-28T14:06:54;15.00;50.70
47857;DHT22;33618;49.972;8.242;2023-02-28T14:09:34;14.90;50.80
47857;DHT22;33618;49.972;8.242;2023-02-28T14:17:56;15.70;50.00
47857;DHT22;33618;49.972;8.242;2023-02-28T14:20:26;15.00;50.10
47857;DHT22;33618;49.972;8.242;2023-02-28T14:31:07;14.70;50.00
47857;DHT22;33618;49.972;8.242;2023-02-28T14:33:45;14.70;50.10
47857;DHT22;33618;49.972;8.242;2023-02-28T14:36:18;14.70;49.90
47857;DHT22;33618;49.972;8.242;2023-02-28T14:41:23;14.90;50.00
47857;DHT22;33618;49.972;8.242;2023-02-28T14:43:56;14.30;50.30
47857;DHT22;33618;49.972;8.242;2023-02-28T14:46:48;14.30;49.90
47857;DHT22;33618;49.972;8.242;2023-02-28T14:51:44;14.90;50.20
47857;DHT22;33618;49.972;8.242;2023-02-28T14:54:15;15.10;49.60
47857;DHT22;33618;49.972;8.242;2023-02-28T14:56:43;14.20;50.00
47857;DHT22;33618;49.972;8.242;2023-02-28T15:02:22;14.30;50.10
47857;DHT22;33618;49.972;8.242;2023-02-28T15:05:01;14.10;50.10
47857;DHT22;33618;49.972;8.242;2023-02-28T15:07:29;14.10;50.20
47857;DHT22;33618;49.972;8.242;2023-02-28T15:10:19;13.60;50.80
47857;DHT22;33618;49.972;8.242;2023-02-28T15:12:55;13.50;50.20
47857;DHT22;33618;49.972;8.242;2023-02-28T15:21:21;13.70;50.70
47857;DHT22;33618;49.972;8.242;2023-02-28T15:24:30;13.50;51.00
47857;DHT22;33618;49.972;8.242;2023-02-28T15:27:02;13.30;50.90
47857;DHT22;33618;49.972;8.242;2023-02-28T15:29:41;12.90;51.10
47857;DHT22;33618;49.972;8.242;2023-02-28T15:34:51;12.30;51.70
47857;DHT22;33618;49.972;8.242;2023-02-28T15:42:32;12.10;52.10
47857;DHT22;33618;49.972;8.242;2023-02-28T15:44:59;12.60;52.30
47857;DHT22;33618;49.972;8.242;2023-02-28T15:47:28;12.10;51.90
47857;DHT22;33618;49.972;8.242;2023-02-28T15:50:02;11.80;52.30
47857;DHT22;33618;49.972;8.242;2023-02-28T15:52:48;11.70;52.50
47857;DHT22;33618;49.972;8.242;2023-02-28T15:55:23;11.70;52.50
47857;DHT22;33618;49.972;8.242;2023-02-28T15:57:54;11.70;53.00
47857;DHT22;33618;49.972;8.242;2023-02-28T16:00:23;11.50;52.80
47857;DHT22;33618;49.972;8.242;2023-02-28T16:02:50;11.30;53.60
47857;DHT22;33618;49.972;8.242;2023-02-28T16:05:25;11.50;53.10
47857;DHT22;33618;49.972;8.242;2023-02-28T16:07:59;11.40;53.00
47857;DHT22;33618;49.972;8.242;2023-02-28T16:10:29;11.00;53.00
47857;DHT22;33618;49.972;8.242;2023-02-28T16:12:57;11.10;53.50
47857;DHT22;33618;49.972;8.242;2023-02-28T16:15:37;11.00;53.80
47857;DHT22;33618;49.972;8.242;2023-02-28T16:18:10;10.90;53.70
47857;DHT22;33618;49.972;8.242;2023-02-28T16:20:37;10.80;53.60
47857;DHT22;33618;49.972;8.242;2023-02-28T16:23:05;10.50;53.90
47857;DHT22;33618;49.972;8.242;2023-02-28T16:25:38;10.40;54.30
47857;DHT22;33618;49.972;8.242;2023-02-28T16:28:35;10.60;54.60
47857;DHT22;33618;49.972;8.242;2023-02-28T16:31:04;10.20;54.90
47857;DHT22;33618;49.972;8.242;2023-02-28T16:33:34;10.10;55.00
47857;DHT22;33618;49.972;8.242;2023-02-28T16:36:01;9.90;55.20
47857;DHT22;33618;49.972;8.242;2023-02-28T16:38:28;9.60;55.50
47857;DHT22;33618;49.972;8.242;2023-02-28T16:40:57;9.20;55.90
47857;DHT22;33618;49.972;8.242;2023-02-28T16:43:26;9.00;56.30
47857;DHT22;33618;49.972;8.242;2023-02-28T16:56:25;8.60;56.60
47857;DHT22;33618;49.972;8.242;2023-02-28T16:58:56;7.50;59.10
47857;DHT22;33618;49.972;8.242;2023-02-28T17:01:26;7.20;59.30
47857;DHT22;33618;49.972;8.242;2023-02-28T17:03:55;7.00;59.90
47857;DHT22;33618;49.972;8.242;2023-02-28T17:06:25;7.00;60.00
47857;DHT22;33618;49.972;8.242;2023-02-28T17:08:54;6.90;60.40
47857;DHT22;33618;49.972;8.242;2023-02-28T17:11:22;6.80;60.40
47857;DHT22;33618;49.972;8.242;2023-02-28T17:13:49;6.60;60.70
47857;DHT22;33618;49.972;8.242;2023-02-28T17:16:25;6.50;60.80
47857;DHT22;33618;49.972;8.242;2023-02-28T17:18:57;6.40;61.60
47857;DHT22;33618;49.972;8.242;2023-02-28T17:21:24;6.20;61.60
47857;DHT22;33618;49.972;8.242;2023-02-28T17:23:51;6.10;62.10
47857;DHT22;33618;49.972;8.242;2023-02-28T17:26:20;5.90;62.40
47857;DHT22;33618;49.972;8.242;2023-02-28T17:28:48;5.80;62.70
47857;DHT22;33618;49.972;8.242;2023-02-28T17:31:15;5.60;62.70
47857;DHT22;33618;49.972;8.242;2023-02-28T17:33:43;5.50;63.50
47857;DHT22;33618;49.972;8.242;2023-02-28T17:36:14;5.40;63.60
47857;DHT22;33618;49.972;8.242;2023-02-28T17:38:42;5.30;63.90
47857;DHT22;33618;49.972;8.242;2023-02-28T17:41:10;5.30;63.90
47857;DHT22;33618;49.972;8.242;2023-02-28T17:43:37;5.20;64.00
47857;DHT22;33618;49.972;8.242;2023-02-28T17:46:05;5.20;64.40
47857;DHT22;33618;49.972;8.242;2023-02-28T17:48:33;5.20;64.60
47857;DHT22;33618;49.972;8.242;2023-02-28T17:51:00;5.10;64.40
47857;DHT22;33618;49.972;8.242;2023-02-28T17:53:27;5.00;64.90
47857;DHT22;33618;49.972;8.242;2023-02-28T17:55:54;5.00;65.10
47857;DHT22;33618;49.972;8.242;2023-02-28T17:58:21;4.90;65.40
47857;DHT22;33618;49.972;8.242;2023-02-28T18:00:48;4.90;65.50
47857;DHT22;33618;49.972;8.242;2023-02-28T18:03:20;4.90;65.40
47857;DHT22;33618;49.972;8.242;2023-02-28T18:05:47;4.80;65.70
47857;DHT22;33618;49.972;8.242;2023-02-28T18:08:16;4.80;65.80
47857;DHT22;33618;49.972;8.242;2023-02-28T18:10:43;4.70;65.90
47857;DHT22;33618;49.972;8.242;2023-02-28T18:13:10;4.70;66.20
47857;DHT22;33618;49.972;8.242;2023-02-28T18:15:39;4.60;66.10
47857;DHT22;33618;49.972;8.242;2023-02-28T18:18:06;4.50;66.30
47857;DHT22;33618;49.972;8.242;2023-02-28T18:20:34;4.50;66.40
47857;DHT22;33618;49.972;8.242;2023-02-28T18:23:01;4.50;66.50
47857;DHT22;33618;49.972;8.242;2023-02-28T18:25:29;4.50;66.70
47857;DHT22;33618;49.972;8.242;2023-02-28T18:27:56;4.40;66.80
47857;DHT22;33618;49.972;8.242;2023-02-28T18:30:29;4.30;66.70
47857;DHT22;33618;49.972;8.242;2023-02-28T18:33:00;4.30;66.80
47857;DHT22;33618;49.972;8.242;2023-02-28T18:35:28;4.20;67.20
47857;DHT22;33618;49.972;8.242;2023-02-28T18:38:12;4.20;67.50
47857;DHT22;33618;49.972;8.242;2023-02-28T18:40:40;4.20;67.60
47857;DHT22;33618;49.972;8.242;2023-02-28T18:43:08;4.10;67.50
47857;DHT22;33618;49.972;8.242;2023-02-28T18:45:36;4.10;68.00
47857;DHT22;33618;49.972;8.242;2023-02-28T18:48:04;4.10;67.70
47857;DHT22;33618;49.972;8.242;2023-02-28T18:50:31;4.00;67.70
47857;DHT22;33618;49.972;8.242;2023-02-28T18:52:58;4.00;68.40
47857;DHT22;33618;49.972;8.242;2023-02-28T18:55:26;4.00;68.10
47857;DHT22;33618;49.972;8.242;2023-02-28T18:57:53;3.90;68.00
47857;DHT22;33618;49.972;8.242;2023-02-28T19:00:20;3.80;68.30
47857;DHT22;33618;49.972;8.242;2023-02-28T19:02:48;3.80;68.60
47857;DHT22;33618;49.972;8.242;2023-02-28T19:05:17;3.70;68.70
47857;DHT22;33618;49.972;8.242;2023-02-28T19:07:45;3.70;68.70
47857;DHT22;33618;49.972;8.242;2023-02-28T19:10:13;3.70;68.50
47857;DHT22;33618;49.972;8.242;2023-02-28T19:12:40;3.60;68.70
47857;DHT22;33618;49.972;8.242;2023-02-28T19:15:09;3.60;69.30
47857;DHT22;33618;49.972;8.242;2023-02-28T19:17:37;3.60;69.10